sensor_id;sensor_type;location;lat;lon;timestamp;temperature;humidity
10911;DHT22;5508;49.150;11.030;2023-12-20T00:00:09;3.90;99.90
10911;DHT22;5508;49.150;11.030;2023-12-20T00:03:09;3.90;99.90
10911;DHT22;5508;49.150;11.030;2023-12-20T00:06:10;4.00;99.90
10911;DHT22;5508;49.150;11.030;2023-12-20T00:09:11;4.10;99.90
10911;DHT22;5508;49.150;11.030;2023-12-20T00:12:11;4.00;99.90
10911;DHT22;5508;49.150;11.030;2023-12-20T00:15:12;4.00;99.90
10911;DHT22;5508;49.150;11.030;2023-12-20T00:18:13;4.10;99.90
10911;DHT22;5508;49.150;11.030;2023-12-20T00:21:13;4.00;99.90
10911;DHT22;5508;49.150;11.030;2023-12-20T00:24:14;4.10;99.90
10911;DHT22;5508;49.150;11.030;2023-12-20T00:27:15;4.10;99.90
10911;DHT22;5508;49.150;11.030;2023-12-20T00:30:16;4.10;99.90
10911;DHT22;5508;49.150;11.030;2023-12-20T00:33:16;4.10;99.90
10911;DHT22;5508;49.150;11.030;2023-12-20T00:36:17;4.10;99.90
10911;DHT22;5508;49.150;11.030;2023-12-20T00:39:18;4.10;99.90
10911;DHT22;5508;49.150;11.030;2023-12-20T00:42:18;4.00;99.90
10911;DHT22;5508;49.150;11.030;2023-12-20T00:45:19;4.00;99.90
10911;DHT22;5508;49.150;11.030;2023-12-20T00:48:19;4.00;99.90
10911;DHT22;5508;49.150;11.030;2023-12-20T00:51:20;3.90;99.90
10911;DHT22;5508;49.150;11.030;2023-12-20T00:54:20;3.90;99.90
10911;DHT22;5508;49.150;11.030;2023-12-20T00:57:21;4.00;99.90
10911;DHT22;5508;49.150;11.030;2023-12-20T01:00:22;4.00;99.90
10911;DHT22;5508;49.150;11.030;2023-12-20T01:03:22;3.90;99.90
10911;DHT22;5508;49.150;11.030;2023-12-20T01:06:23;3.90;99.90
10911;DHT22;5508;49.150;11.030;2023-12-20T01:09:24;3.90;99.90
10911;DHT22;5508;49.150;11.030;2023-12-20T01:12:26;3.80;99.90
10911;DHT22;5508;49.150;11.030;2023-12-20T01:15:27;3.80;99.90
10911;DHT22;5508;49.150;11.030;2023-12-20T01:18:28;3.80;99.90
10911;DHT22;5508;49.150;11.030;2023-12-20T01:21:28;3.70;99.90
10911;DHT22;5508;49.150;11.030;2023-12-20T01:24:29;3.80;99.90
10911;DHT22;5508;49.150;11.030;2023-12-20T01:27:29;3.70;99.90
10911;DHT22;5508;49.150;11.030;2023-12-20T01:30:31;3.60;99.90
10911;DHT22;5508;49.150;11.030;2023-12-20T01:33:31;3.50;99.90
10911;DHT22;5508;49.150;11.030;2023-12-20T01:36:32;3.60;99.90
10911;DHT22;5508;49.150;11.030;2023-12-20T01:39:33;3.50;99.90
10911;DHT22;5508;49.150;11.030;2023-12-20T01:42:33;3.60;99.90
10911;DHT22;5508;49.150;11.030;2023-12-20T01:45:35;3.50;99.90
10911;DHT22;5508;49.150;11.030;2023-12-20T01:48:35;3.50;99.90
10911;DHT22;5508;49.150;11.030;2023-12-20T01:51:36;3.50;99.90
10911;DHT22;5508;49.150;11.030;2023-12-20T01:54:37;3.40;99.90
10911;DHT22;5508;49.150;11.030;2023-12-20T01:57:40;3.40;99.90
10911;DHT22;5508;49.150;11.030;2023-12-20T02:00:42;3.40;99.90
10911;DHT22;5508;49.150;11.030;2023-12-20T02:03:42;3.30;99.90
10911;DHT22;5508;49.150;11.030;2023-12-20T02:06:46;3.40;99.90
10911;DHT22;5508;49.150;11.030;2023-12-20T02:09:46;3.40;99.90
10911;DHT22;5508;49.150;11.030;2023-12-20T02:12:47;3.40;99.90
10911;DHT22;5508;49.150;11.030;2023-12-20T02:15:48;3.40;99.90
10911;DHT22;5508;49.150;11.030;2023-12-20T02:18:48;3.40;99.90
10911;DHT22;5508;49.150;11.030;2023-12-20T02:21:49;3.30;99.90
10911;DHT22;5508;49.150;11.030;2023-12-20T02:24:49;3.30;99.90
10911;DHT22;5508;49.150;11.030;2023-12-20T02:27:50;3.30;99.90
10911;DHT22;5508;49.150;11.030;2023-12-20T02:30:51;3.20;99.90
10911;DHT22;5508;49.150;11.030;2023-12-20T02:33:51;3.20;99.90
10911;DHT22;5508;49.150;11.030;2023-12-20T02:36:52;3.20;99.90
10911;DHT22;5508;49.150;11.030;2023-12-20T02:39:53;3.20;99.90
10911;DHT22;5508;49.150;11.030;2023-12-20T02:42:53;3.30;99.90
10911;DHT22;5508;49.150;11.030;2023-12-20T02:45:54;3.30;99.90
10911;DHT22;5508;49.150;11.030;2023-12-20T02:48:54;3.20;99.90
10911;DHT22;5508;49.150;11.030;2023-12-20T02:51:55;3.20;99.90
10911;DHT22;5508;49.150;11.030;2023-12-20T02:54:55;3.20;99.90
10911;DHT22;5508;49.150;11.030;2023-12-20T02:57:56;3.20;99.90
10911;DHT22;5508;49.150;11.030;2023-12-20T03:00:56;3.30;99.90
10911;DHT22;5508;49.150;11.030;2023-12-20T03:03:57;3.30;99.90
10911;DHT22;5508;49.150;11.030;2023-12-20T03:06:58;3.30;99.90
10911;DHT22;5508;49.150;11.030;2023-12-20T03:09:58;3.40;99.90
10911;DHT22;5508;49.150;11.030;2023-12-20T03:12:59;3.40;99.90
10911;DHT22;5508;49.150;11.030;2023-12-20T03:15:59;3.40;99.90
10911;DHT22;5508;49.150;11.030;2023-12-20T03:19:00;3.50;99.90
10911;DHT22;5508;49.150;11.030;2023-12-20T03:22:00;3.50;99.90
10911;DHT22;5508;49.150;11.030;2023-12-20T03:25:01;3.50;99.90
10911;DHT22;5508;49.150;11.030;2023-12-20T03:28:02;3.40;99.90
10911;DHT22;5508;49.150;11.030;2023-12-20T03:31:02;3.40;99.90
10911;DHT22;5508;49.150;11.030;2023-12-20T03:34:03;3.40;99.90
10911;DHT22;5508;49.150;11.030;2023-12-20T03:37:04;3.50;99.90
10911;DHT22;5508;49.150;11.030;2023-12-20T03:40:05;3.40;99.90
10911;DHT22;5508;49.150;11.030;2023-12-20T03:43:05;3.50;99.90
10911;DHT22;5508;49.150;11.030;2023-12-20T03:46:08;3.50;99.90
10911;DHT22;5508;49.150;11.030;2023-12-20T03:49:08;3.50;99.90
10911;DHT22;5508;49.150;11.030;2023-12-20T03:52:09;3.40;99.90
10911;DHT22;5508;49.150;11.030;2023-12-20T03:55:10;3.40;99.90
10911;DHT22;5508;49.150;11.030;2023-12-20T03:58:10;3.50;99.90
10911;DHT22;5508;49.150;11.030;2023-12-20T04:01:11;3.50;99.90
10911;DHT22;5508;49.150;11.030;2023-12-20T04:04:13;3.50;99.90
10911;DHT22;5508;49.150;11.030;2023-12-20T04:07:13;3.50;99.90
10911;DHT22;5508;49.150;11.030;2023-12-20T04:10:15;3.50;99.90
10911;DHT22;5508;49.150;11.030;2023-12-20T04:13:15;3.50;99.90
10911;DHT22;5508;49.150;11.030;2023-12-20T04:16:16;3.40;99.90
10911;DHT22;5508;49.150;11.030;2023-12-20T04:19:16;3.50;99.90
10911;DHT22;5508;49.150;11.030;2023-12-20T04:22:18;3.50;99.90
10911;DHT22;5508;49.150;11.030;2023-12-20T04:25:19;3.40;99.90
10911;DHT22;5508;49.150;11.030;2023-12-20T04:28:19;3.50;99.90
10911;DHT22;5508;49.150;11.030;2023-12-20T04:31:20;3.40;99.90
10911;DHT22;5508;49.150;11.030;2023-12-20T04:34:22;3.40;99.90
10911;DHT22;5508;49.150;11.030;2023-12-20T04:37:22;3.30;99.90
10911;DHT22;5508;49.150;11.030;2023-12-20T04:40:23;3.30;99.90
10911;DHT22;5508;49.150;11.030;2023-12-20T04:43:23;3.30;99.90
10911;DHT22;5508;49.150;11.030;2023-12-20T04:46:24;3.30;99.90
10911;DHT22;5508;49.150;11.030;2023-12-20T04:49:25;3.30;99.90
10911;DHT22;5508;49.150;11.030;2023-12-20T04:52:25;3.30;99.90
10911;DHT22;5508;49.150;11.030;2023-12-20T04:55:26;3.30;99.90
10911;DHT22;5508;49.150;11.030;2023-12-20T04:58:26;3.30;99.90
10911;DHT22;5508;49.150;11.030;2023-12-20T05:01:27;3.20;99.90
10911;DHT22;5508;49.150;11.030;2023-12-20T05:04:28;3.20;99.90
10911;DHT22;5508;49.150;11.030;2023-12-20T05:07:28;3.30;99.90
10911;DHT22;5508;49.150;11.030;2023-12-20T05:10:29;3.20;99.90
10911;DHT22;5508;49.150;11.030;2023-12-20T05:13:30;3.20;99.90
10911;DHT22;5508;49.150;11.030;2023-12-20T05:16:30;3.20;99.90
10911;DHT22;5508;49.150;11.030;2023-12-20T05:19:31;3.20;99.90
10911;DHT22;5508;49.150;11.030;2023-12-20T05:22:35;3.20;99.90
10911;DHT22;5508;49.150;11.030;2023-12-20T05:25:35;3.20;99.90
10911;DHT22;5508;49.150;11.030;2023-12-20T05:28:36;3.20;99.90
10911;DHT22;5508;49.150;11.030;2023-12-20T05:31:37;3.20;99.90
10911;DHT22;5508;49.150;11.030;2023-12-20T05:34:37;3.20;99.90
10911;DHT22;5508;49.150;11.030;2023-12-20T05:37:38;3.10;99.90
10911;DHT22;5508;49.150;11.030;2023-12-20T05:40:39;3.10;99.90
10911;DHT22;5508;49.150;11.030;2023-12-20T05:43:39;3.00;99.90
10911;DHT22;5508;49.150;11.030;2023-12-20T05:46:40;3.00;99.90
10911;DHT22;5508;49.150;11.030;2023-12-20T05:49:41;3.00;99.90
10911;DHT22;5508;49.150;11.030;2023-12-20T05:52:41;2.90;99.90
10911;DHT22;5508;49.150;11.030;2023-12-20T05:55:42;2.90;99.90
10911;DHT22;5508;49.150;11.030;2023-12-20T05:58:42;2.90;99.90
10911;DHT22;5508;49.150;11.030;2023-12-20T06:01:44;2.90;99.90
10911;DHT22;5508;49.150;11.030;2023-12-20T06:04:44;2.90;99.90
10911;DHT22;5508;49.150;11.030;2023-12-20T06:07:45;2.90;99.90
10911;DHT22;5508;49.150;11.030;2023-12-20T06:10:49;2.80;99.90
10911;DHT22;5508;49.150;11.030;2023-12-20T06:13:49;2.90;99.90
10911;DHT22;5508;49.150;11.030;2023-12-20T06:16:52;2.90;99.90
10911;DHT22;5508;49.150;11.030;2023-12-20T06:19:52;2.80;99.90
10911;DHT22;5508;49.150;11.030;2023-12-20T06:22:53;2.90;99.90
10911;DHT22;5508;49.150;11.030;2023-12-20T06:25:54;2.90;99.90
10911;DHT22;5508;49.150;11.030;2023-12-20T06:28:54;2.90;99.90
10911;DHT22;5508;49.150;11.030;2023-12-20T06:31:55;2.90;99.90
10911;DHT22;5508;49.150;11.030;2023-12-20T06:34:56;2.90;99.90
10911;DHT22;5508;49.150;11.030;2023-12-20T06:37:56;2.90;99.90
10911;DHT22;5508;49.150;11.030;2023-12-20T06:40:57;2.80;99.90
10911;DHT22;5508;49.150;11.030;2023-12-20T06:43:58;2.80;99.90
10911;DHT22;5508;49.150;11.030;2023-12-20T06:46:59;2.80;99.90
10911;DHT22;5508;49.150;11.030;2023-12-20T06:50:00;2.80;99.90
10911;DHT22;5508;49.150;11.030;2023-12-20T06:53:01;2.80;99.90
10911;DHT22;5508;49.150;11.030;2023-12-20T06:56:07;2.80;99.90
10911;DHT22;5508;49.150;11.030;2023-12-20T06:59:07;2.90;99.90
10911;DHT22;5508;49.150;11.030;2023-12-20T07:02:08;2.90;99.90
10911;DHT22;5508;49.150;11.030;2023-12-20T07:05:09;2.90;99.90
10911;DHT22;5508;49.150;11.030;2023-12-20T07:08:10;2.90;99.90
10911;DHT22;5508;49.150;11.030;2023-12-20T07:11:11;2.90;99.90
10911;DHT22;5508;49.150;11.030;2023-12-20T07:14:12;2.90;99.90
10911;DHT22;5508;49.150;11.030;2023-12-20T07:17:12;2.90;99.90
10911;DHT22;5508;49.150;11.030;2023-12-20T07:20:15;2.90;99.90
10911;DHT22;5508;49.150;11.030;2023-12-20T07:23:15;3.00;99.90
10911;DHT22;5508;49.150;11.030;2023-12-20T07:26:16;3.00;99.90
10911;DHT22;5508;49.150;11.030;2023-12-20T07:29:17;3.00;99.90
10911;DHT22;5508;49.150;11.030;2023-12-20T07:32:18;3.00;99.90
10911;DHT22;5508;49.150;11.030;2023-12-20T07:35:18;3.10;99.90
10911;DHT22;5508;49.150;11.030;2023-12-20T07:38:19;3.10;99.90
10911;DHT22;5508;49.150;11.030;2023-12-20T07:41:19;3.10;99.90
10911;DHT22;5508;49.150;11.030;2023-12-20T07:44:21;3.10;99.90
10911;DHT22;5508;49.150;11.030;2023-12-20T07:47:22;3.10;99.90
10911;DHT22;5508;49.150;11.030;2023-12-20T07:50:23;3.10;99.90
10911;DHT22;5508;49.150;11.030;2023-12-20T07:53:23;3.20;99.90
10911;DHT22;5508;49.150;11.030;2023-12-20T07:56:24;3.10;99.90
10911;DHT22;5508;49.150;11.030;2023-12-20T07:59:24;3.20;99.90
10911;DHT22;5508;49.150;11.030;2023-12-20T08:02:25;3.20;99.90
10911;DHT22;5508;49.150;11.030;2023-12-20T08:05:25;3.20;99.90
10911;DHT22;5508;49.150;11.030;2023-12-20T08:08:26;3.30;99.90
10911;DHT22;5508;49.150;11.030;2023-12-20T08:11:27;3.30;99.90
10911;DHT22;5508;49.150;11.030;2023-12-20T08:14:27;3.30;99.90
10911;DHT22;5508;49.150;11.030;2023-12-20T08:17:28;3.40;99.90
10911;DHT22;5508;49.150;11.030;2023-12-20T08:20:28;3.40;99.90
10911;DHT22;5508;49.150;11.030;2023-12-20T08:23:29;3.40;99.90
10911;DHT22;5508;49.150;11.030;2023-12-20T08:26:30;3.50;99.90
10911;DHT22;5508;49.150;11.030;2023-12-20T08:29:30;3.40;99.90
10911;DHT22;5508;49.150;11.030;2023-12-20T08:32:31;3.40;99.90
10911;DHT22;5508;49.150;11.030;2023-12-20T08:35:32;3.50;99.90
10911;DHT22;5508;49.150;11.030;2023-12-20T08:38:33;3.50;99.90
10911;DHT22;5508;49.150;11.030;2023-12-20T08:41:34;3.50;99.90
10911;DHT22;5508;49.150;11.030;2023-12-20T08:44:35;3.50;99.90
10911;DHT22;5508;49.150;11.030;2023-12-20T08:47:35;3.60;99.90
10911;DHT22;5508;49.150;11.030;2023-12-20T08:50:36;3.60;99.90
10911;DHT22;5508;49.150;11.030;2023-12-20T08:53:37;3.60;99.90
10911;DHT22;5508;49.150;11.030;2023-12-20T08:56:38;3.60;99.90
10911;DHT22;5508;49.150;11.030;2023-12-20T08:59:39;3.60;99.90
10911;DHT22;5508;49.150;11.030;2023-12-20T09:02:41;3.60;99.90
10911;DHT22;5508;49.150;11.030;2023-12-20T09:05:41;3.60;99.90
10911;DHT22;5508;49.150;11.030;2023-12-20T09:08:42;3.60;99.90
10911;DHT22;5508;49.150;11.030;2023-12-20T09:11:42;3.70;99.90
10911;DHT22;5508;49.150;11.030;2023-12-20T09:14:43;3.80;99.90
10911;DHT22;5508;49.150;11.030;2023-12-20T09:17:44;3.60;99.90
10911;DHT22;5508;49.150;11.030;2023-12-20T09:20:45;3.70;99.90
10911;DHT22;5508;49.150;11.030;2023-12-20T09:23:45;3.60;99.90
10911;DHT22;5508;49.150;11.030;2023-12-20T09:26:46;3.50;99.90
10911;DHT22;5508;49.150;11.030;2023-12-20T09:29:47;3.40;99.90
10911;DHT22;5508;49.150;11.030;2023-12-20T09:32:48;3.40;99.90
10911;DHT22;5508;49.150;11.030;2023-12-20T09:35:49;3.40;99.90
10911;DHT22;5508;49.150;11.030;2023-12-20T09:38:50;3.60;99.90
10911;DHT22;5508;49.150;11.030;2023-12-20T09:45:02;3.90;99.90
10911;DHT22;5508;49.150;11.030;2023-12-20T09:48:04;3.90;99.90
10911;DHT22;5508;49.150;11.030;2023-12-20T09:51:05;4.00;99.90
10911;DHT22;5508;49.150;11.030;2023-12-20T09:54:05;4.00;99.90
10911;DHT22;5508;49.150;11.030;2023-12-20T09:57:06;3.70;99.90
10911;DHT22;5508;49.150;11.030;2023-12-20T10:00:07;3.50;99.90
10911;DHT22;5508;49.150;11.030;2023-12-20T10:03:08;3.40;99.90
10911;DHT22;5508;49.150;11.030;2023-12-20T10:06:09;3.30;99.90
10911;DHT22;5508;49.150;11.030;2023-12-20T10:09:11;3.20;99.90
10911;DHT22;5508;49.150;11.030;2023-12-20T10:12:12;3.40;99.90
10911;DHT22;5508;49.150;11.030;2023-12-20T10:15:12;3.50;99.90
10911;DHT22;5508;49.150;11.030;2023-12-20T10:18:13;3.60;99.90
10911;DHT22;5508;49.150;11.030;2023-12-20T10:21:14;3.70;99.90
10911;DHT22;5508;49.150;11.030;2023-12-20T10:24:18;3.80;99.90
10911;DHT22;5508;49.150;11.030;2023-12-20T10:27:19;3.90;99.90
10911;DHT22;5508;49.150;11.030;2023-12-20T10:30:20;4.00;99.90
10911;DHT22;5508;49.150;11.030;2023-12-20T10:33:27;4.10;99.90
10911;DHT22;5508;49.150;11.030;2023-12-20T10:36:30;4.10;99.90
10911;DHT22;5508;49.150;11.030;2023-12-20T10:39:31;4.00;99.90
10911;DHT22;5508;49.150;11.030;2023-12-20T10:42:32;4.00;99.90
10911;DHT22;5508;49.150;11.030;2023-12-20T10:45:34;4.20;99.90
10911;DHT22;5508;49.150;11.030;2023-12-20T10:48:34;4.50;99.90
10911;DHT22;5508;49.150;11.030;2023-12-20T10:51:36;4.60;99.90
10911;DHT22;5508;49.150;11.030;2023-12-20T10:54:41;4.70;99.90
10911;DHT22;5508;49.150;11.030;2023-12-20T10:57:42;4.80;99.90
10911;DHT22;5508;49.150;11.030;2023-12-20T11:00:45;4.70;99.90
10911;DHT22;5508;49.150;11.030;2023-12-20T11:03:52;4.60;98.00
10911;DHT22;5508;49.150;11.030;2023-12-20T11:07:16;4.50;96.30
10911;DHT22;5508;49.150;11.030;2023-12-20T11:10:31;4.40;98.30
10911;DHT22;5508;49.150;11.030;2023-12-20T11:13:40;4.40;97.30
10911;DHT22;5508;49.150;11.030;2023-12-20T11:16:42;4.40;98.20
10911;DHT22;5508;49.150;11.030;2023-12-20T11:22:58;4.40;97.60
10911;DHT22;5508;49.150;11.030;2023-12-20T11:25:59;4.40;97.60
10911;DHT22;5508;49.150;11.030;2023-12-20T11:29:30;4.50;97.30
10911;DHT22;5508;49.150;11.030;2023-12-20T11:32:31;4.50;97.30
10911;DHT22;5508;49.150;11.030;2023-12-20T11:35:31;4.40;97.70
10911;DHT22;5508;49.150;11.030;2023-12-20T11:38:38;4.40;98.40
10911;DHT22;5508;49.150;11.030;2023-12-20T11:41:39;4.40;98.20
10911;DHT22;5508;49.150;11.030;2023-12-20T11:44:39;4.50;98.00
10911;DHT22;5508;49.150;11.030;2023-12-20T11:47:45;4.70;98.40
10911;DHT22;5508;49.150;11.030;2023-12-20T11:50:46;4.60;97.50
10911;DHT22;5508;49.150;11.030;2023-12-20T11:53:51;4.60;97.40
10911;DHT22;5508;49.150;11.030;2023-12-20T11:56:53;4.50;98.60
10911;DHT22;5508;49.150;11.030;2023-12-20T11:59:53;4.50;97.40
10911;DHT22;5508;49.150;11.030;2023-12-20T12:02:58;4.50;98.10
10911;DHT22;5508;49.150;11.030;2023-12-20T12:05:59;4.60;99.10
10911;DHT22;5508;49.150;11.030;2023-12-20T12:09:01;4.50;98.70
10911;DHT22;5508;49.150;11.030;2023-12-20T12:12:02;4.50;99.90
10911;DHT22;5508;49.150;11.030;2023-12-20T12:15:04;4.40;99.90
10911;DHT22;5508;49.150;11.030;2023-12-20T12:18:05;4.40;99.90
10911;DHT22;5508;49.150;11.030;2023-12-20T12:21:06;4.30;99.70
10911;DHT22;5508;49.150;11.030;2023-12-20T12:24:10;4.40;99.70
10911;DHT22;5508;49.150;11.030;2023-12-20T12:27:15;4.40;99.80
10911;DHT22;5508;49.150;11.030;2023-12-20T12:30:16;4.40;98.60
10911;DHT22;5508;49.150;11.030;2023-12-20T12:33:18;4.30;99.30
10911;DHT22;5508;49.150;11.030;2023-12-20T12:36:19;4.30;99.70
10911;DHT22;5508;49.150;11.030;2023-12-20T12:39:20;4.20;99.40
10911;DHT22;5508;49.150;11.030;2023-12-20T12:42:20;4.20;99.90
10911;DHT22;5508;49.150;11.030;2023-12-20T12:45:22;4.20;99.90
10911;DHT22;5508;49.150;11.030;2023-12-20T12:48:22;4.20;99.70
10911;DHT22;5508;49.150;11.030;2023-12-20T12:51:23;4.10;99.90
10911;DHT22;5508;49.150;11.030;2023-12-20T12:54:24;4.10;99.90
10911;DHT22;5508;49.150;11.030;2023-12-20T12:57:24;4.10;99.50
10911;DHT22;5508;49.150;11.030;2023-12-20T13:00:25;4.10;99.90
10911;DHT22;5508;49.150;11.030;2023-12-20T13:03:26;4.10;99.90
10911;DHT22;5508;49.150;11.030;2023-12-20T13:06:27;4.10;99.90
10911;DHT22;5508;49.150;11.030;2023-12-20T13:09:27;4.10;99.90
10911;DHT22;5508;49.150;11.030;2023-12-20T13:12:28;4.10;99.90
10911;DHT22;5508;49.150;11.030;2023-12-20T13:15:29;4.10;99.90
10911;DHT22;5508;49.150;11.030;2023-12-20T13:18:31;4.10;99.90
10911;DHT22;5508;49.150;11.030;2023-12-20T13:21:31;4.10;99.90
10911;DHT22;5508;49.150;11.030;2023-12-20T13:24:32;4.10;99.90
10911;DHT22;5508;49.150;11.030;2023-12-20T13:27:32;4.10;98.30
10911;DHT22;5508;49.150;11.030;2023-12-20T13:30:33;4.10;98.80
10911;DHT22;5508;49.150;11.030;2023-12-20T13:33:34;4.10;98.10
10911;DHT22;5508;49.150;11.030;2023-12-20T13:36:35;4.10;95.60
10911;DHT22;5508;49.150;11.030;2023-12-20T13:39:36;4.10;94.30
10911;DHT22;5508;49.150;11.030;2023-12-20T13:42:37;4.00;95.20
10911;DHT22;5508;49.150;11.030;2023-12-20T13:45:37;4.10;95.60
10911;DHT22;5508;49.150;11.030;2023-12-20T13:48:38;4.00;95.80
10911;DHT22;5508;49.150;11.030;2023-12-20T13:51:39;4.00;95.10
10911;DHT22;5508;49.150;11.030;2023-12-20T13:54:39;4.00;94.20
10911;DHT22;5508;49.150;11.030;2023-12-20T13:57:40;4.00;94.80
10911;DHT22;5508;49.150;11.030;2023-12-20T14:00:41;4.10;96.30
10911;DHT22;5508;49.150;11.030;2023-12-20T14:03:42;4.00;96.10
10911;DHT22;5508;49.150;11.030;2023-12-20T14:06:42;4.00;94.70
10911;DHT22;5508;49.150;11.030;2023-12-20T14:09:43;4.00;95.70
10911;DHT22;5508;49.150;11.030;2023-12-20T14:12:45;4.00;96.50
10911;DHT22;5508;49.150;11.030;2023-12-20T14:15:46;4.00;94.80
10911;DHT22;5508;49.150;11.030;2023-12-20T14:18:47;4.10;95.40
10911;DHT22;5508;49.150;11.030;2023-12-20T14:21:48;4.10;95.60
10911;DHT22;5508;49.150;11.030;2023-12-20T14:24:48;4.10;95.10
10911;DHT22;5508;49.150;11.030;2023-12-20T14:27:49;4.10;94.70
10911;DHT22;5508;49.150;11.030;2023-12-20T14:30:50;4.00;94.10
10911;DHT22;5508;49.150;11.030;2023-12-20T14:33:50;4.00;93.60
10911;DHT22;5508;49.150;11.030;2023-12-20T14:36:53;3.90;95.40
10911;DHT22;5508;49.150;11.030;2023-12-20T14:39:54;3.90;96.70
10911;DHT22;5508;49.150;11.030;2023-12-20T14:42:55;3.80;96.30
10911;DHT22;5508;49.150;11.030;2023-12-20T14:45:55;3.80;96.60
10911;DHT22;5508;49.150;11.030;2023-12-20T14:48:56;3.80;96.50
10911;DHT22;5508;49.150;11.030;2023-12-20T14:51:56;3.80;96.40
10911;DHT22;5508;49.150;11.030;2023-12-20T14:54:58;3.80;96.00
10911;DHT22;5508;49.150;11.030;2023-12-20T14:57:59;3.70;96.30
10911;DHT22;5508;49.150;11.030;2023-12-20T15:01:00;3.80;96.30
10911;DHT22;5508;49.150;11.030;2023-12-20T15:04:01;3.70;96.90
10911;DHT22;5508;49.150;11.030;2023-12-20T15:07:02;3.60;96.80
10911;DHT22;5508;49.150;11.030;2023-12-20T15:10:05;3.60;97.70
10911;DHT22;5508;49.150;11.030;2023-12-20T15:13:06;3.60;97.90
10911;DHT22;5508;49.150;11.030;2023-12-20T15:16:06;3.50;99.10
10911;DHT22;5508;49.150;11.030;2023-12-20T15:19:07;3.50;98.30
10911;DHT22;5508;49.150;11.030;2023-12-20T15:22:07;3.50;99.40
10911;DHT22;5508;49.150;11.030;2023-12-20T15:25:08;3.50;98.60
10911;DHT22;5508;49.150;11.030;2023-12-20T15:28:09;3.50;99.60
10911;DHT22;5508;49.150;11.030;2023-12-20T15:31:11;3.50;99.20
10911;DHT22;5508;49.150;11.030;2023-12-20T15:34:13;3.40;99.90
10911;DHT22;5508;49.150;11.030;2023-12-20T15:37:14;3.40;99.90
10911;DHT22;5508;49.150;11.030;2023-12-20T15:40:16;3.40;99.90
10911;DHT22;5508;49.150;11.030;2023-12-20T15:43:16;3.40;99.90
10911;DHT22;5508;49.150;11.030;2023-12-20T15:46:17;3.40;99.90
10911;DHT22;5508;49.150;11.030;2023-12-20T15:49:17;3.50;99.90
10911;DHT22;5508;49.150;11.030;2023-12-20T15:52:19;3.40;99.90
10911;DHT22;5508;49.150;11.030;2023-12-20T15:55:19;3.50;99.40
10911;DHT22;5508;49.150;11.030;2023-12-20T15:58:20;3.50;99.90
10911;DHT22;5508;49.150;11.030;2023-12-20T16:01:20;3.50;99.90
10911;DHT22;5508;49.150;11.030;2023-12-20T16:04:21;3.40;99.90
10911;DHT22;5508;49.150;11.030;2023-12-20T16:07:22;3.30;99.90
10911;DHT22;5508;49.150;11.030;2023-12-20T16:10:22;3.40;99.90
10911;DHT22;5508;49.150;11.030;2023-12-20T16:13:23;3.30;99.90
10911;DHT22;5508;49.150;11.030;2023-12-20T16:16:23;3.30;99.90
10911;DHT22;5508;49.150;11.030;2023-12-20T16:19:24;3.30;99.90
10911;DHT22;5508;49.150;11.030;2023-12-20T16:22:24;3.30;99.90
10911;DHT22;5508;49.150;11.030;2023-12-20T16:25:26;3.30;99.90
10911;DHT22;5508;49.150;11.030;2023-12-20T16:28:27;3.30;99.90
10911;DHT22;5508;49.150;11.030;2023-12-20T16:31:28;3.30;99.90
10911;DHT22;5508;49.150;11.030;2023-12-20T16:34:28;3.30;99.90
10911;DHT22;5508;49.150;11.030;2023-12-20T16:37:29;3.20;99.90
10911;DHT22;5508;49.150;11.030;2023-12-20T16:40:29;3.30;99.90
10911;DHT22;5508;49.150;11.030;2023-12-20T16:43:30;3.20;99.90
10911;DHT22;5508;49.150;11.030;2023-12-20T16:46:30;3.20;99.90
10911;DHT22;5508;49.150;11.030;2023-12-20T16:49:31;3.20;99.90
10911;DHT22;5508;49.150;11.030;2023-12-20T16:52:32;3.10;99.90
10911;DHT22;5508;49.150;11.030;2023-12-20T16:55:33;3.20;99.90
10911;DHT22;5508;49.150;11.030;2023-12-20T16:58:33;3.20;99.90
10911;DHT22;5508;49.150;11.030;2023-12-20T17:01:35;3.20;99.90
10911;DHT22;5508;49.150;11.030;2023-12-20T17:04:35;3.30;99.90
10911;DHT22;5508;49.150;11.030;2023-12-20T17:07:36;3.20;99.90
10911;DHT22;5508;49.150;11.030;2023-12-20T17:10:36;3.20;99.90
10911;DHT22;5508;49.150;11.030;2023-12-20T17:13:37;3.20;99.90
10911;DHT22;5508;49.150;11.030;2023-12-20T17:16:38;3.20;99.90
10911;DHT22;5508;49.150;11.030;2023-12-20T17:19:38;3.20;99.90
10911;DHT22;5508;49.150;11.030;2023-12-20T17:22:41;3.20;99.90
10911;DHT22;5508;49.150;11.030;2023-12-20T17:25:42;3.20;99.90
10911;DHT22;5508;49.150;11.030;2023-12-20T17:28:42;3.20;99.90
10911;DHT22;5508;49.150;11.030;2023-12-20T17:31:43;3.10;99.90
10911;DHT22;5508;49.150;11.030;2023-12-20T17:34:44;3.20;99.90
10911;DHT22;5508;49.150;11.030;2023-12-20T17:37:45;3.20;99.90
10911;DHT22;5508;49.150;11.030;2023-12-20T17:40:45;3.20;99.90
10911;DHT22;5508;49.150;11.030;2023-12-20T17:43:46;3.20;99.90
10911;DHT22;5508;49.150;11.030;2023-12-20T17:46:47;3.20;99.90
10911;DHT22;5508;49.150;11.030;2023-12-20T17:49:47;3.20;99.90
10911;DHT22;5508;49.150;11.030;2023-12-20T17:52:48;3.20;99.90
10911;DHT22;5508;49.150;11.030;2023-12-20T17:55:48;3.20;99.90
10911;DHT22;5508;49.150;11.030;2023-12-20T17:58:49;3.20;99.90
10911;DHT22;5508;49.150;11.030;2023-12-20T18:01:50;3.20;99.90
10911;DHT22;5508;49.150;11.030;2023-12-20T18:04:50;3.20;99.90
10911;DHT22;5508;49.150;11.030;2023-12-20T18:07:52;3.20;99.90
10911;DHT22;5508;49.150;11.030;2023-12-20T18:10:53;3.40;99.90
10911;DHT22;5508;49.150;11.030;2023-12-20T18:13:53;3.30;99.90
10911;DHT22;5508;49.150;11.030;2023-12-20T18:16:54;3.30;99.90
10911;DHT22;5508;49.150;11.030;2023-12-20T18:19:55;3.30;99.90
10911;DHT22;5508;49.150;11.030;2023-12-20T18:22:55;3.30;99.90
10911;DHT22;5508;49.150;11.030;2023-12-20T18:25:56;3.30;99.90
10911;DHT22;5508;49.150;11.030;2023-12-20T18:28:56;3.30;99.90
10911;DHT22;5508;49.150;11.030;2023-12-20T18:31:57;3.30;99.90
10911;DHT22;5508;49.150;11.030;2023-12-20T18:34:57;3.30;99.90
10911;DHT22;5508;49.150;11.030;2023-12-20T18:37:58;3.30;99.90
10911;DHT22;5508;49.150;11.030;2023-12-20T18:41:00;3.20;99.90
10911;DHT22;5508;49.150;11.030;2023-12-20T18:44:01;3.20;99.90
10911;DHT22;5508;49.150;11.030;2023-12-20T18:47:02;3.20;99.90
10911;DHT22;5508;49.150;11.030;2023-12-20T18:50:03;3.20;99.90
10911;DHT22;5508;49.150;11.030;2023-12-20T18:53:08;3.20;99.90
10911;DHT22;5508;49.150;11.030;2023-12-20T18:56:08;3.10;99.90
10911;DHT22;5508;49.150;11.030;2023-12-20T18:59:09;3.20;99.90
10911;DHT22;5508;49.150;11.030;2023-12-20T19:02:09;3.10;99.90
10911;DHT22;5508;49.150;11.030;2023-12-20T19:05:11;3.20;99.90
10911;DHT22;5508;49.150;11.030;2023-12-20T19:08:12;3.10;99.90
10911;DHT22;5508;49.150;11.030;2023-12-20T19:11:12;3.20;99.90
10911;DHT22;5508;49.150;11.030;2023-12-20T19:14:13;3.10;99.90
10911;DHT22;5508;49.150;11.030;2023-12-20T19:17:14;3.10;99.90
10911;DHT22;5508;49.150;11.030;2023-12-20T19:20:14;3.20;99.90
10911;DHT22;5508;49.150;11.030;2023-12-20T19:23:15;3.20;99.90
10911;DHT22;5508;49.150;11.030;2023-12-20T19:26:16;3.20;99.90